Time;durP1;ratioP1;P1;durP2;ratioP2;P2;SDS_P1;SDS_P2;PMS_P1;PMS_P2;Temp;Humidity;BMP_temperature;BMP_pressure;BME280_temperature;BME280_humidity;BME280_pressure;Samples;Min_cycle;Max_cycle;Signal;HPM_P1;HPM_P2
2022/03/05 00:01:07;;;;;;;12.43;4.82;;;;;;;4.97;77.70;100805.97;4967679;28;20218;-52
2022/03/05 00:03:34;;;;;;;13.60;5.78;;;;;;;4.95;77.69;100804.19;4968014;28;20744;-46
2022/03/05 00:06:01;;;;;;;10.80;4.03;;;;;;;4.96;77.78;100805.97;4965303;28;20042;-47
2022/03/05 00:08:28;;;;;;;14.00;4.88;;;;;;;4.96;77.43;100811.09;4969268;28;20051;-46
2022/03/05 00:10:55;;;;;;;15.10;5.22;;;;;;;4.97;77.68;100808.56;4972696;28;20042;-47
2022/03/05 00:13:21;;;;;;;14.32;5.10;;;;;;;4.97;77.46;100807.69;4968289;28;20050;-46
2022/03/05 00:15:48;;;;;;;16.33;7.75;;;;;;;4.97;77.44;100812.84;4970805;28;20097;-49
2022/03/05 00:18:15;;;;;;;17.23;8.23;;;;;;;4.97;78.29;100817.97;4981192;28;20058;-46
2022/03/05 00:20:43;;;;;;;14.48;6.07;;;;;;;4.96;77.40;100821.38;4969878;28;20417;-45
2022/03/05 00:23:09;;;;;;;15.02;7.18;;;;;;;4.96;77.58;100823.94;4984198;28;20057;-51
2022/03/05 00:25:37;;;;;;;15.43;7.13;;;;;;;4.94;78.17;100825.56;4969195;28;20069;-48
2022/03/05 00:28:03;;;;;;;11.82;5.10;;;;;;;4.91;77.09;100823.78;4969462;28;20055;-52
2022/03/05 00:30:30;;;;;;;17.02;7.88;;;;;;;4.93;76.94;100828.97;4975444;28;20062;-49
2022/03/05 00:32:57;;;;;;;14.73;5.57;;;;;;;4.92;77.83;100824.63;4971988;28;20050;-46
2022/03/05 00:35:24;;;;;;;14.50;7.07;;;;;;;4.88;77.29;100827.13;4973941;28;20145;-44
2022/03/05 00:37:51;;;;;;;17.17;5.95;;;;;;;4.88;77.52;100821.97;4971033;28;20120;-45
2022/03/05 00:40:17;;;;;;;14.77;5.80;;;;;;;4.89;77.84;100825.41;4972117;28;20047;-48
2022/03/05 00:42:44;;;;;;;15.85;7.47;;;;;;;4.84;77.09;100830.41;4964500;28;20055;-48
2022/03/05 00:45:10;;;;;;;11.82;5.80;;;;;;;4.85;77.69;100829.56;4973065;28;20047;-47
2022/03/05 00:47:37;;;;;;;10.10;4.25;;;;;;;4.83;77.71;100826.06;4969929;28;20058;-44
2022/03/05 00:50:06;;;;;;;13.52;7.05;;;;;;;4.80;77.70;100831.09;4970749;28;20059;-45
2022/03/05 00:52:34;;;;;;;13.65;5.60;;;;;;;4.80;77.02;100836.22;4970361;28;20054;-46
2022/03/05 00:55:01;;;;;;;18.13;5.45;;;;;;;4.80;76.96;100836.22;4972852;28;20050;-44
2022/03/05 00:57:27;;;;;;;17.42;7.28;;;;;;;4.81;77.03;100832.88;4971271;28;20050;-48
2022/03/05 00:59:54;;;;;;;10.63;3.83;;;;;;;4.80;77.11;100841.38;4969735;28;20081;-47
2022/03/05 01:02:21;;;;;;;15.07;4.55;;;;;;;4.81;77.03;100838.00;4977321;28;20054;-46
2022/03/05 01:04:47;;;;;;;15.02;7.47;;;;;;;4.82;77.23;100838.84;4969956;28;20153;-44
2022/03/05 01:07:14;;;;;;;12.80;4.50;;;;;;;4.82;76.81;100839.72;4978990;28;20050;-48
2022/03/05 01:09:41;;;;;;;12.68;4.32;;;;;;;4.82;76.74;100839.72;4969716;28;20106;-46
2022/03/05 01:12:08;;;;;;;12.60;6.38;;;;;;;4.79;76.88;100837.06;4970391;28;20077;-47
2022/03/05 01:14:34;;;;;;;9.45;3.80;;;;;;;4.76;76.51;100850.66;4970085;28;20051;-48
2022/03/05 01:17:02;;;;;;;9.40;5.20;;;;;;;4.79;76.28;100844.75;4968819;28;20043;-48
2022/03/05 01:19:28;;;;;;;10.43;4.88;;;;;;;4.78;76.16;100850.72;4971363;28;20507;-45
2022/03/05 01:21:55;;;;;;;7.65;2.75;;;;;;;4.76;76.70;100845.53;4974145;28;20450;-48
2022/03/05 01:24:22;;;;;;;8.35;4.05;;;;;;;4.76;76.43;100863.50;4971527;28;20105;-47
2022/03/05 01:26:48;;;;;;;9.70;3.53;;;;;;;4.74;75.80;100856.56;4972198;28;20102;-51
2022/03/05 01:29:15;;;;;;;3.10;2.50;;;;;;;4.70;75.23;100844.47;4982869;28;20050;-47
2022/03/05 01:31:42;;;;;;;7.18;2.47;;;;;;;4.72;75.44;100858.19;4970397;28;20592;-45
2022/03/05 01:34:08;;;;;;;3.97;1.48;;;;;;;4.68;74.64;100856.34;4982080;28;20053;-45
2022/03/05 01:36:35;;;;;;;3.95;2.70;;;;;;;4.67;75.39;100855.50;4970519;28;20047;-45
2022/03/05 01:39:02;;;;;;;4.80;3.15;;;;;;;4.69;74.73;100860.69;4969160;28;20050;-46
2022/03/05 01:41:30;;;;;;;5.80;3.30;;;;;;;4.70;75.29;100865.00;4970855;28;20047;-46
2022/03/05 01:43:57;;;;;;;5.53;3.03;;;;;;;4.67;74.59;100854.59;4967257;28;20647;-45
2022/03/05 01:46:34;;;;;;;6.07;3.05;;;;;;;4.63;75.11;100849.38;4975095;28;20043;-45
2022/03/05 01:49:04;;;;;;;2.95;1.20;;;;;;;4.65;75.65;100845.97;4976619;28;20133;-47
2022/03/05 01:51:31;;;;;;;4.50;2.95;;;;;;;4.65;74.71;100856.22;4973355;28;20097;-46
2022/03/05 01:53:58;;;;;;;5.07;3.33;;;;;;;4.64;75.04;100850.25;4968201;28;20051;-45
2022/03/05 01:56:27;;;;;;;4.18;2.92;;;;;;;4.64;74.77;100852.81;4972907;28;20145;-49
2022/03/05 01:58:54;;;;;;;4.35;3.42;;;;;;;4.62;74.69;100857.91;4968634;28;20046;-49
2022/03/05 02:01:23;;;;;;;5.88;2.95;;;;;;;4.64;75.07;100847.69;4973892;28;20102;-44
2022/03/05 02:03:51;;;;;;;4.20;2.17;;;;;;;4.61;74.63;100851.03;4974785;28;20064;-47
2022/03/05 02:06:18;;;;;;;4.30;2.08;;;;;;;4.59;74.20;100857.78;4965709;28;20051;-47
2022/03/05 02:08:45;;;;;;;4.22;3.05;;;;;;;4.54;74.29;100850.75;4971756;28;20050;-45
2022/03/05 02:11:13;;;;;;;1.67;0.43;;;;;;;4.54;74.77;100850.75;4969145;28;20066;-47
2022/03/05 02:13:41;;;;;;;2.65;1.75;;;;;;;4.57;74.73;100849.19;4975316;28;20050;-47
2022/03/05 02:16:09;;;;;;;2.05;0.82;;;;;;;4.51;74.72;100854.06;4967964;28;20078;-45
2022/03/05 02:18:35;;;;;;;2.67;1.58;;;;;;;4.50;74.44;100847.22;4979279;28;20082;-48
2022/03/05 02:21:02;;;;;;;3.03;2.47;;;;;;;4.54;74.86;100863.56;4971826;28;20050;-49
2022/03/05 02:23:29;;;;;;;2.45;1.00;;;;;;;4.55;74.76;100861.06;4974603;28;20411;-44
2022/03/05 02:25:58;;;;;;;2.40;0.70;;;;;;;4.52;74.90;100853.25;4974623;28;20554;-44
2022/03/05 02:28:27;;;;;;;3.08;1.73;;;;;;;4.52;75.25;100860.09;4967887;28;20638;-51
2022/03/05 02:30:54;;;;;;;2.97;2.15;;;;;;;4.52;74.90;100860.94;4976963;28;20046;-47
2022/03/05 02:33:21;;;;;;;3.60;3.17;;;;;;;4.47;74.24;100857.34;4966940;28;20112;-46
2022/03/05 02:35:48;;;;;;;3.85;0.98;;;;;;;4.46;74.31;100851.34;4972669;28;21064;-47
2022/03/05 02:38:18;;;;;;;4.40;1.08;;;;;;;4.51;74.95;100854.06;4968674;28;20054;-49
2022/03/05 02:40:46;;;;;;;4.07;0.77;;;;;;;4.47;74.33;100858.25;4972479;28;20501;-48
2022/03/05 02:43:13;;;;;;;2.03;0.93;;;;;;;4.48;74.78;100865.13;4972337;28;20109;-49
2022/03/05 02:45:40;;;;;;;3.45;2.17;;;;;;;4.47;74.85;100865.94;4972246;28;20807;-48
2022/03/05 02:48:09;;;;;;;3.03;2.42;;;;;;;4.50;74.81;100860.03;4968883;28;20113;-46
2022/03/05 02:50:36;;;;;;;3.22;0.80;;;;;;;4.48;73.75;100859.09;4968135;28;20051;-48
2022/03/05 02:53:03;;;;;;;3.67;2.45;;;;;;;4.47;74.30;100865.06;4975804;28;20100;-46
2022/03/05 02:55:30;;;;;;;5.43;2.00;;;;;;;4.47;74.42;100862.50;4970308;28;20113;-43
2022/03/05 02:57:57;;;;;;;2.80;0.93;;;;;;;4.45;74.61;100859.88;4972539;28;20085;-49
2022/03/05 03:00:44;;;;;;;4.07;0.77;;;;;;;4.44;74.19;100862.38;4969611;28;20426;-44
2022/03/05 03:03:13;;;;;;;3.67;0.73;;;;;;;4.40;73.18;100856.28;4973111;28;20051;-45
2022/03/05 03:05:40;;;;;;;2.25;1.88;;;;;;;4.39;73.70;100854.50;4966276;28;20058;-45
2022/03/05 03:08:06;;;;;;;3.10;1.83;;;;;;;4.39;74.12;100863.91;4973372;28;20182;-49
2022/03/05 03:10:33;;;;;;;3.05;1.08;;;;;;;4.41;73.43;100867.38;4981402;28;20433;-48
2022/03/05 03:13:00;;;;;;;2.72;1.63;;;;;;;4.37;73.34;100866.41;4973154;28;20047;-45
2022/03/05 03:15:27;;;;;;;4.13;2.55;;;;;;;4.39;72.87;100864.75;4984511;28;20100;-46
2022/03/05 03:17:54;;;;;;;1.92;1.70;;;;;;;4.40;72.99;100865.66;4972549;28;20130;-42
2022/03/05 03:20:24;;;;;;;1.17;0.80;;;;;;;4.42;73.35;100874.28;4977885;28;20052;-45
2022/03/05 03:22:52;;;;;;;3.72;1.42;;;;;;;4.36;73.29;100870.66;4976747;28;20046;-43
2022/03/05 03:25:19;;;;;;;1.80;1.52;;;;;;;4.42;72.82;100871.72;4974545;28;20502;-46
2022/03/05 03:27:46;;;;;;;2.85;2.08;;;;;;;4.41;73.75;100867.38;4976727;28;20058;-47
2022/03/05 03:30:14;;;;;;;3.08;1.85;;;;;;;4.42;73.02;100866.59;4973222;28;20090;-44
2022/03/05 03:32:42;;;;;;;2.83;1.42;;;;;;;4.42;73.99;100871.72;4981616;28;20685;-43
2022/03/05 03:35:11;;;;;;;3.92;2.08;;;;;;;4.40;73.74;100865.66;4968491;28;20102;-45
2022/03/05 03:37:39;;;;;;;4.20;1.88;;;;;;;4.42;73.36;100864.03;4975511;28;20105;-44
2022/03/05 03:40:09;;;;;;;3.92;1.95;;;;;;;4.41;73.36;100867.38;4987051;28;20579;-47
2022/03/05 03:42:35;;;;;;;4.22;0.60;;;;;;;4.37;73.62;100851.91;4978084;28;20039;-46
2022/03/05 03:45:04;;;;;;;1.13;0.40;;;;;;;4.36;73.27;100865.53;4976778;28;20042;-45
2022/03/05 03:47:31;;;;;;;3.40;0.43;;;;;;;4.33;73.00;100860.28;4968790;28;20051;-45
2022/03/05 03:49:58;;;;;;;3.40;1.85;;;;;;;4.35;73.39;100866.34;4974349;28;20101;-47
2022/03/05 03:52:26;;;;;;;2.05;1.67;;;;;;;4.33;73.74;100857.72;4971854;28;20058;-45
2022/03/05 03:54:52;;;;;;;6.15;0.60;;;;;;;4.35;73.56;100863.78;4979450;28;20054;-50
2022/03/05 03:57:19;;;;;;;1.08;0.40;;;;;;;4.32;73.87;100858.53;4969746;28;20054;-44
2022/03/05 03:59:47;;;;;;;3.85;2.35;;;;;;;4.33;73.32;100860.28;4981646;28;20087;-44
2022/03/05 04:02:14;;;;;;;4.07;1.98;;;;;;;4.34;73.19;100856.94;4975124;28;20081;-45
2022/03/05 04:04:41;;;;;;;2.92;1.40;;;;;;;4.32;74.17;100862.81;4973318;28;20078;-46
2022/03/05 04:09:56;;;;;;;4.85;2.35;;;;;;;4.33;73.82;100860.28;4972760;28;20556;-44
2022/03/05 04:12:22;;;;;;;4.10;1.67;;;;;;;4.30;73.81;100855.06;4988227;28;20434;-47
2022/03/05 04:14:49;;;;;;;3.47;2.85;;;;;;;4.31;74.12;100861.94;4969898;28;20121;-43
2022/03/05 04:17:16;;;;;;;5.18;2.05;;;;;;;4.31;74.52;100867.06;4973507;28;20046;-47
2022/03/05 04:19:43;;;;;;;4.93;2.35;;;;;;;4.31;73.51;100869.63;4972081;28;20530;-45
2022/03/05 04:22:10;;;;;;;8.05;2.13;;;;;;;4.31;73.57;100868.75;4974323;28;20046;-45
2022/03/05 04:24:37;;;;;;;1.98;0.98;;;;;;;4.32;73.94;100862.81;4978574;28;20054;-44
2022/03/05 04:27:05;;;;;;;2.58;0.45;;;;;;;4.31;74.13;100868.75;4971055;28;20132;-44
2022/03/05 04:29:32;;;;;;;4.88;2.65;;;;;;;4.29;73.92;100873.81;4977918;28;20113;-46
2022/03/05 04:31:59;;;;;;;2.63;2.17;;;;;;;4.32;74.12;100873.09;4970965;28;20058;-49
2022/03/05 04:34:26;;;;;;;6.03;2.00;;;;;;;4.27;74.33;100874.59;4974494;28;20050;-46
2022/03/05 04:36:53;;;;;;;8.20;2.22;;;;;;;4.30;73.53;100875.59;4970700;28;20059;-47
2022/03/05 04:39:19;;;;;;;2.65;0.40;;;;;;;4.29;73.65;100880.66;4976717;28;20053;-47
2022/03/05 04:41:46;;;;;;;3.10;0.52;;;;;;;4.30;73.88;100880.72;4971094;28;20701;-48
2022/03/05 04:44:13;;;;;;;1.52;1.42;;;;;;;4.29;73.49;100889.22;4982467;28;20137;-46
2022/03/05 04:46:39;;;;;;;1.85;1.48;;;;;;;4.30;73.33;100888.41;4973809;28;20046;-44
2022/03/05 04:49:12;;;;;;;1.63;1.30;;;;;;;4.30;72.86;100890.97;4972184;28;20078;-47
2022/03/05 04:51:39;;;;;;;1.98;1.45;;;;;;;4.34;72.89;100892.84;4974159;28;20506;-45
2022/03/05 04:54:06;;;;;;;0.77;0.30;;;;;;;4.31;72.66;100891.84;4969609;28;20093;-47
2022/03/05 04:56:32;;;;;;;0.55;0.22;;;;;;;4.32;72.81;100894.47;4979890;28;20399;-49
2022/03/05 04:58:59;;;;;;;2.03;1.65;;;;;;;4.35;72.78;100899.69;4968665;28;20065;-45
2022/03/05 05:01:25;;;;;;;1.98;1.80;;;;;;;4.31;71.93;100899.53;4966967;28;20054;-47
2022/03/05 05:03:52;;;;;;;5.45;1.65;;;;;;;4.31;71.90;100902.97;4967817;28;20059;-44
2022/03/05 05:06:19;;;;;;;2.42;1.45;;;;;;;4.32;72.15;100909.84;4977462;28;20055;-47
2022/03/05 05:08:45;;;;;;;1.13;1.08;;;;;;;4.34;72.21;100912.47;4969111;28;20506;-49
2022/03/05 05:11:12;;;;;;;1.15;0.20;;;;;;;4.29;71.95;100914.84;4974600;28;20384;-44
2022/03/05 05:13:39;;;;;;;1.33;1.10;;;;;;;4.32;72.56;100916.69;4976475;28;20042;-44
2022/03/05 05:16:06;;;;;;;1.90;1.35;;;;;;;4.33;72.59;100910.72;4974807;28;20542;-47
2022/03/05 05:18:33;;;;;;;10.07;1.77;;;;;;;4.34;72.14;100902.22;4975096;28;20134;-47
2022/03/05 05:21:01;;;;;;;0.40;0.30;;;;;;;4.32;72.11;100909.84;4969506;28;22774;-44
2022/03/05 05:23:27;;;;;;;0.20;0.10;;;;;;;4.35;72.12;100922.78;4980677;28;20073;-47
2022/03/05 05:25:54;;;;;;;1.95;1.02;;;;;;;4.35;71.50;100920.22;4969199;28;20446;-48
2022/03/05 05:28:21;;;;;;;2.42;2.22;;;;;;;4.35;71.92;100920.22;4979677;28;20093;-46
2022/03/05 05:30:47;;;;;;;0.63;0.40;;;;;;;4.33;72.35;100929.53;4967521;28;20459;-45
2022/03/05 05:33:14;;;;;;;1.70;1.15;;;;;;;4.33;72.10;100921.84;4971203;28;20051;-44
2022/03/05 05:35:41;;;;;;;2.85;0.20;;;;;;;4.34;72.14;100923.63;4974252;28;20497;-49
2022/03/05 05:38:07;;;;;;;4.97;1.50;;;;;;;4.32;72.21;100925.22;4972542;28;20187;-44
2022/03/05 05:40:34;;;;;;;2.20;2.00;;;;;;;4.33;72.55;100932.09;4972036;28;20051;-47
2022/03/05 05:43:01;;;;;;;1.33;1.23;;;;;;;4.28;72.37;100933.63;4966337;28;20553;-46
2022/03/05 05:45:27;;;;;;;1.67;1.42;;;;;;;4.30;72.11;100937.16;4976021;28;20042;-47
2022/03/05 05:47:54;;;;;;;2.45;1.45;;;;;;;4.26;72.59;100935.28;4967323;28;20110;-50
2022/03/05 05:50:21;;;;;;;0.98;0.95;;;;;;;4.24;71.89;100930.09;4976625;28;20439;-46
2022/03/05 05:52:47;;;;;;;0.70;0.35;;;;;;;4.27;72.48;100948.97;4971848;28;20078;-47
2022/03/05 05:55:14;;;;;;;1.65;1.55;;;;;;;4.27;72.32;100942.16;4977204;28;20058;-50
2022/03/05 05:57:40;;;;;;;1.15;0.43;;;;;;;4.26;72.52;100945.53;4970405;28;20446;-47
2022/03/05 06:00:08;;;;;;;1.20;0.80;;;;;;;4.28;71.92;100938.75;4971104;28;20423;-44
2022/03/05 06:02:34;;;;;;;0.50;0.20;;;;;;;4.25;72.58;100936.06;4974400;28;20050;-49
2022/03/05 06:05:01;;;;;;;2.75;1.50;;;;;;;4.25;72.52;100941.22;4969150;28;20051;-48
2022/03/05 06:07:27;;;;;;;1.63;1.48;;;;;;;4.23;71.89;100940.28;4980661;28;20101;-44
2022/03/05 06:09:54;;;;;;;3.00;0.88;;;;;;;4.24;72.42;100936.91;4968908;28;20050;-44
2022/03/05 06:12:21;;;;;;;2.15;1.63;;;;;;;4.26;72.39;100930.16;4977750;28;20483;-48
2022/03/05 06:14:47;;;;;;;1.65;0.52;;;;;;;4.21;72.82;100936.78;4969222;28;20054;-47
2022/03/05 06:17:14;;;;;;;5.20;0.50;;;;;;;4.18;72.22;100947.81;4975656;28;20054;-45
2022/03/05 06:19:41;;;;;;;2.42;1.77;;;;;;;4.20;72.77;100945.28;4968784;28;20047;-43
2022/03/05 06:22:08;;;;;;;3.55;1.13;;;;;;;4.19;72.31;100948.69;4977546;28;20074;-45
2022/03/05 06:24:35;;;;;;;3.08;1.25;;;;;;;4.20;72.52;100950.44;4970465;28;20046;-46
2022/03/05 06:27:01;;;;;;;6.25;0.45;;;;;;;4.25;72.28;100954.03;4964939;28;20051;-46
2022/03/05 06:29:28;;;;;;;2.13;1.38;;;;;;;4.22;72.97;100956.50;4972416;28;20110;-45
2022/03/05 06:31:55;;;;;;;3.15;1.27;;;;;;;4.25;72.25;100954.03;4971430;28;20055;-49
2022/03/05 06:34:21;;;;;;;2.58;1.15;;;;;;;4.25;72.57;100964.28;4978453;28;20093;-44
2022/03/05 06:36:48;;;;;;;1.30;0.25;;;;;;;4.24;72.30;100970.25;4968697;28;20054;-44
2022/03/05 06:39:15;;;;;;;2.72;1.45;;;;;;;4.25;72.50;100964.28;4978242;28;21183;-47
2022/03/05 06:41:41;;;;;;;1.33;1.25;;;;;;;4.23;72.41;100968.50;4969174;28;20047;-43
2022/03/05 06:44:08;;;;;;;2.83;0.32;;;;;;;4.22;72.59;100971.88;4978632;28;20066;-47
2022/03/05 06:46:35;;;;;;;3.20;1.63;;;;;;;4.20;72.21;100971.81;4980523;28;20533;-45
2022/03/05 06:49:02;;;;;;;2.63;2.42;;;;;;;4.17;72.69;100981.06;4973577;28;20054;-45
2022/03/05 06:51:28;;;;;;;2.17;1.95;;;;;;;4.15;72.65;100977.59;4979639;28;20054;-47
2022/03/05 06:53:55;;;;;;;2.85;1.98;;;;;;;4.08;73.12;100982.47;4975656;28;20050;-48
2022/03/05 06:56:22;;;;;;;3.25;1.75;;;;;;;4.06;72.58;100989.22;4972587;28;20051;-46
2022/03/05 06:58:48;;;;;;;1.55;1.45;;;;;;;4.12;73.28;100993.72;4972938;28;20046;-48
2022/03/05 07:01:15;;;;;;;4.28;1.85;;;;;;;4.11;72.87;100997.09;4979014;28;20470;-47
2022/03/05 07:03:42;;;;;;;2.13;1.85;;;;;;;4.09;73.02;100998.75;4970467;28;20050;-48
2022/03/05 07:06:08;;;;;;;1.25;1.15;;;;;;;4.08;72.84;101007.22;4978599;28;20101;-49
2022/03/05 07:08:36;;;;;;;1.73;1.63;;;;;;;4.07;72.82;101001.25;4979734;28;20096;-44
2022/03/05 07:11:04;;;;;;;2.60;1.42;;;;;;;4.08;73.21;101000.41;4977312;28;20050;-46
2022/03/05 07:13:30;;;;;;;3.38;1.45;;;;;;;4.08;72.77;101002.97;4975728;28;20050;-49
2022/03/05 07:15:57;;;;;;;3.72;0.47;;;;;;;4.10;72.91;101015.88;4974760;28;20049;-46
2022/03/05 07:18:24;;;;;;;3.40;1.80;;;;;;;4.08;72.22;101013.25;4974589;28;20046;-47
2022/03/05 07:20:51;;;;;;;1.58;1.45;;;;;;;4.11;72.92;101013.38;4968121;28;20127;-44
2022/03/05 07:23:17;;;;;;;1.23;1.13;;;;;;;4.07;73.17;101019.19;4980088;28;20042;-44
2022/03/05 07:25:44;;;;;;;1.83;1.55;;;;;;;4.08;72.59;101018.38;4966652;28;20066;-47
2022/03/05 07:28:11;;;;;;;1.95;1.85;;;;;;;4.08;72.81;101018.38;4975666;28;20046;-46
2022/03/05 07:30:38;;;;;;;1.60;1.50;;;;;;;4.07;73.09;101021.75;4968811;28;20042;-46
2022/03/05 07:33:10;;;;;;;4.63;1.83;;;;;;;4.05;72.70;101028.50;4976275;28;20141;-44
2022/03/05 07:35:37;;;;;;;2.28;2.15;;;;;;;4.04;72.90;101031.88;4972539;28;20047;-46
2022/03/05 07:38:04;;;;;;;1.33;1.30;;;;;;;4.03;72.93;101026.69;4970413;28;20055;-48
2022/03/05 07:40:30;;;;;;;1.33;0.38;;;;;;;4.06;72.77;101026.81;4973244;28;20054;-50
2022/03/05 07:42:57;;;;;;;3.95;1.60;;;;;;;4.05;72.98;101038.75;4973266;28;20050;-49
2022/03/05 07:45:23;;;;;;;3.10;1.65;;;;;;;4.05;73.00;101035.34;4972597;28;20113;-45
2022/03/05 07:47:50;;;;;;;1.58;1.48;;;;;;;4.09;72.89;101038.06;4967319;28;20054;-44
2022/03/05 07:50:17;;;;;;;2.03;1.80;;;;;;;4.11;72.52;101044.13;4970565;28;20047;-47
2022/03/05 07:52:43;;;;;;;4.82;1.13;;;;;;;4.17;72.68;101047.75;4967472;28;20090;-46
2022/03/05 07:55:10;;;;;;;1.70;1.55;;;;;;;4.17;73.10;101052.88;4970394;28;20105;-47
2022/03/05 07:57:37;;;;;;;10.32;4.10;;;;;;;4.18;72.59;101039.22;4966177;28;20046;-50
2022/03/05 08:00:05;;;;;;;2.75;1.50;;;;;;;4.20;72.33;101050.44;4969256;28;20039;-44
2022/03/05 08:02:47;;;;;;;1.80;1.02;;;;;;;4.19;72.20;101058.94;4966517;28;20517;-45
2022/03/05 08:05:14;;;;;;;1.25;1.25;;;;;;;4.20;72.45;101063.25;4972806;28;20048;-46
2022/03/05 08:07:40;;;;;;;2.05;1.55;;;;;;;4.23;72.71;101058.25;4966025;28;20823;-48
2022/03/05 08:10:07;;;;;;;3.05;1.00;;;;;;;4.23;72.62;101063.38;4973375;28;20050;-47
2022/03/05 08:12:35;;;;;;;1.42;1.33;;;;;;;4.24;72.53;101067.69;4961330;28;20046;-47
2022/03/05 08:15:03;;;;;;;1.90;1.48;;;;;;;4.26;72.12;101067.75;4973374;28;20050;-47
2022/03/05 08:17:30;;;;;;;3.55;1.48;;;;;;;4.33;72.34;101072.31;4962595;28;20058;-49
2022/03/05 08:19:57;;;;;;;3.33;1.08;;;;;;;4.42;72.08;101069.25;4960087;28;20065;-47
2022/03/05 08:22:24;;;;;;;4.07;2.08;;;;;;;4.56;72.13;101070.63;4964384;28;20074;-49
2022/03/05 08:24:51;;;;;;;2.30;1.20;;;;;;;4.57;71.34;101074.97;4968567;28;20486;-45
2022/03/05 08:27:17;;;;;;;2.03;1.77;;;;;;;4.59;71.59;101073.31;4962723;28;20062;-45
2022/03/05 08:29:44;;;;;;;1.58;0.40;;;;;;;4.57;71.38;101074.09;4977136;28;20417;-47
2022/03/05 08:32:12;;;;;;;1.45;1.35;;;;;;;4.53;71.77;101067.09;4965548;28;20042;-46
2022/03/05 08:34:38;;;;;;;9.25;1.52;;;;;;;4.50;71.29;101065.28;4969702;28;20057;-44
2022/03/05 08:37:05;;;;;;;7.80;1.45;;;;;;;4.51;71.72;101069.59;4966703;28;20050;-46
2022/03/05 08:39:32;;;;;;;2.35;1.60;;;;;;;4.58;71.97;101066.44;4969587;28;20704;-45
2022/03/05 08:41:58;;;;;;;5.57;1.45;;;;;;;4.79;71.20;101069.78;4968141;28;20541;-50
2022/03/05 08:44:25;;;;;;;3.28;1.38;;;;;;;4.85;71.04;101075.13;4969273;28;20201;-44
2022/03/05 08:46:52;;;;;;;2.78;1.35;;;;;;;4.84;70.68;101086.22;4965024;28;20046;-47
2022/03/05 08:49:19;;;;;;;0.73;0.30;;;;;;;4.81;70.01;101079.28;4968543;28;20445;-45
2022/03/05 08:51:45;;;;;;;0.80;0.45;;;;;;;4.88;70.39;101071.00;4966866;28;20054;-49
2022/03/05 08:54:12;;;;;;;0.80;0.35;;;;;;;5.01;70.03;101076.59;4966592;28;20096;-44
2022/03/05 08:56:39;;;;;;;1.35;1.25;;;;;;;5.07;70.50;101081.91;4968621;28;20097;-47
2022/03/05 08:59:05;;;;;;;3.90;1.38;;;;;;;5.11;69.81;101081.25;4966193;28;20194;-45
2022/03/05 09:01:32;;;;;;;4.25;1.55;;;;;;;5.12;70.24;101079.53;4974106;28;20057;-50
2022/03/05 09:03:59;;;;;;;3.15;1.35;;;;;;;5.07;70.22;101084.50;4964434;28;20066;-48
2022/03/05 09:06:25;;;;;;;4.05;1.73;;;;;;;5.03;70.72;101087.75;4970009;28;20132;-42
2022/03/05 09:08:52;;;;;;;3.05;1.50;;;;;;;4.98;70.79;101077.34;4965595;28;20061;-48
2022/03/05 09:11:19;;;;;;;2.42;1.70;;;;;;;5.13;71.55;101091.53;4969973;28;20062;-47
2022/03/05 09:13:46;;;;;;;3.42;1.77;;;;;;;5.78;70.22;101092.97;4967385;28;20063;-44
2022/03/05 09:16:12;;;;;;;2.60;2.47;;;;;;;5.82;68.07;101089.66;4971692;28;20498;-47
2022/03/05 09:18:39;;;;;;;2.85;1.38;;;;;;;5.64;68.66;101090.78;4967428;28;20054;-47
2022/03/05 09:21:06;;;;;;;0.63;0.17;;;;;;;5.63;68.58;101094.19;4965405;28;20069;-45
2022/03/05 09:23:33;;;;;;;1.52;0.35;;;;;;;5.61;69.05;101095.81;4966996;28;20532;-51
2022/03/05 09:25:59;;;;;;;2.72;1.92;;;;;;;5.51;68.77;101088.63;4968971;28;20097;-45
2022/03/05 09:28:26;;;;;;;2.30;1.65;;;;;;;5.52;68.33;101095.50;4969923;28;20051;-50
2022/03/05 09:30:53;;;;;;;1.38;0.20;;;;;;;5.53;69.89;101098.13;4976456;28;20054;-45
2022/03/05 09:33:22;;;;;;;1.67;1.40;;;;;;;5.64;68.65;101090.78;4973832;28;20109;-47
2022/03/05 09:35:50;;;;;;;4.90;1.52;;;;;;;5.82;69.18;101099.06;4963392;28;20049;-49
2022/03/05 09:38:17;;;;;;;1.50;0.65;;;;;;;5.87;68.81;101093.25;4970429;28;20129;-49
2022/03/05 09:40:45;;;;;;;5.13;2.03;;;;;;;5.83;68.22;101098.22;4963796;28;20054;-50
2022/03/05 09:43:13;;;;;;;0.85;0.28;;;;;;;5.70;68.68;101104.66;4972105;28;20051;-45
2022/03/05 09:45:43;;;;;;;1.30;0.20;;;;;;;5.64;68.13;101108.78;4964960;28;20113;-47
2022/03/05 09:48:11;;;;;;;7.22;0.30;;;;;;;5.62;68.57;101113.00;4976950;28;20058;-47
2022/03/05 09:50:38;;;;;;;2.10;1.25;;;;;;;5.64;68.21;101106.19;4968652;28;20050;-45
2022/03/05 09:53:05;;;;;;;0.57;0.20;;;;;;;5.66;68.69;101111.41;4973669;28;20055;-48
2022/03/05 09:55:31;;;;;;;3.70;0.30;;;;;;;5.70;68.83;101109.78;4962761;28;20047;-49
2022/03/05 09:57:59;;;;;;;4.45;2.20;;;;;;;5.78;69.11;101116.09;4968735;28;20050;-50
2022/03/05 10:00:27;;;;;;;2.65;1.85;;;;;;;5.79;68.07;101110.13;4965912;28;20054;-52
2022/03/05 10:03:05;;;;;;;5.03;2.30;;;;;;;5.82;68.18;101115.38;4968658;28;20070;-49
2022/03/05 10:05:32;;;;;;;2.17;1.60;;;;;;;5.79;67.89;101120.41;4977377;28;20046;-49
2022/03/05 10:10:49;;;;;;;2.55;0.10;;;;;;;5.65;69.44;101127.66;5027368;28;20398;-46
2022/03/05 10:13:18;;;;;;;3.35;0.20;;;;;;;5.48;69.22;101120.22;5022374;28;20644;-46
2022/03/05 10:15:45;;;;;;;1.15;0.47;;;;;;;5.46;70.17;101126.09;5018986;28;20551;-49
2022/03/05 10:18:12;;;;;;;5.20;0.70;;;;;;;5.43;69.93;101126.03;5019225;28;20054;-45
2022/03/05 10:20:45;;;;;;;2.35;0.73;;;;;;;5.46;70.12;101126.09;5017843;28;20386;-50
2022/03/05 10:23:12;;;;;;;1.70;1.02;;;;;;;5.51;69.98;101130.59;5006664;28;20054;-48
2022/03/05 10:25:41;;;;;;;0.73;0.55;;;;;;;5.53;70.02;101128.06;5011918;28;20049;-45
2022/03/05 10:28:17;;;;;;;4.03;0.75;;;;;;;5.71;70.65;101127.00;5019068;28;20038;-46
2022/03/05 10:30:47;;;;;;;4.10;0.93;;;;;;;5.92;69.35;101126.84;5017170;28;20103;-45
2022/03/05 10:36:03;;;;;;;4.97;1.85;;;;;;;5.94;69.19;101134.63;5057347;27;20396;-47
2022/03/05 10:41:43;;;;;;;5.55;1.05;;;;;;;5.92;68.98;101138.00;5024068;27;20425;-45
2022/03/05 10:44:19;;;;;;;0.63;0.50;;;;;;;5.95;68.99;101141.50;5020563;28;20429;-45
2022/03/05 10:46:48;;;;;;;0.93;0.93;;;;;;;5.92;68.41;101143.13;5015351;28;20257;-48
2022/03/05 10:54:40;;;;;;;0.65;0.30;;;;;;;5.95;68.20;101144.97;5054793;27;20419;-47
2022/03/05 10:57:18;;;;;;;0.90;0.40;;;;;;;5.96;68.14;101143.25;5028013;28;20057;-48
2022/03/05 10:59:45;;;;;;;;;;;;;;;5.88;69.26;101148.13;5026543;28;20547;-47
2022/03/05 11:02:14;;;;;;;2.22;0.40;;;;;;;5.87;69.77;101160.09;5035717;28;19925;-46
2022/03/05 11:04:43;;;;;;;2.92;0.95;;;;;;;5.87;69.04;101167.81;5046038;28;20182;-49
2022/03/05 11:07:12;;;;;;;1.30;0.60;;;;;;;5.85;69.59;101166.91;5050201;28;20050;-47
2022/03/05 11:09:42;;;;;;;1.55;0.50;;;;;;;5.78;68.57;101158.09;5028381;28;20738;-45
2022/03/05 11:12:15;;;;;;;2.10;0.88;;;;;;;5.95;68.65;101156.94;5053666;28;20063;-46
2022/03/05 11:14:52;;;;;;;3.10;0.88;;;;;;;6.03;68.72;101160.63;5041632;28;20774;-45
2022/03/05 11:17:19;;;;;;;3.33;0.63;;;;;;;6.08;67.37;101153.97;5017319;28;20488;-48
2022/03/05 11:19:47;;;;;;;0.52;0.22;;;;;;;6.07;67.37;101141.94;5024498;28;20404;-47
2022/03/05 11:22:15;;;;;;;2.15;0.50;;;;;;;6.09;67.28;101142.00;5019475;28;20057;-45
2022/03/05 11:24:43;;;;;;;3.40;0.50;;;;;;;6.14;66.93;101149.03;5030758;28;20129;-50
2022/03/05 11:27:14;;;;;;;1.45;0.52;;;;;;;6.25;67.85;101145.97;5034111;28;20481;-47
2022/03/05 11:29:59;;;;;;;2.00;0.68;;;;;;;6.24;67.07;101149.34;5013928;28;20129;-48
2022/03/05 11:32:31;;;;;;;4.68;0.60;;;;;;;6.21;67.13;101164.69;5024038;28;20115;-43
2022/03/05 11:34:58;;;;;;;2.83;0.30;;;;;;;6.17;67.49;101151.72;5017103;28;20117;-45
2022/03/05 11:37:32;;;;;;;1.80;0.65;;;;;;;6.19;67.49;101163.75;5023407;28;20513;-47
2022/03/05 11:40:01;;;;;;;3.95;1.15;;;;;;;6.13;67.85;101162.75;5014857;28;20038;-49
2022/03/05 11:42:30;;;;;;;5.30;1.02;;;;;;;6.18;69.03;101165.44;5018992;28;20053;-48
2022/03/05 11:44:59;;;;;;;1.15;0.50;;;;;;;6.14;67.07;101161.91;5010373;28;20579;-46
2022/03/05 11:47:31;;;;;;;5.20;1.23;;;;;;;6.08;66.83;101171.97;5022911;28;20049;-45
2022/03/05 12:11:17;;;;;;;1.95;0.43;;;;;;;6.10;66.19;101172.91;5001156;28;20417;-46